Marchicora — V2OQ7 — position and weather

sailwx.info

Track history (hours):
 
Tides and Currents Weather Stations Pressure Air Temp Water Temp Dewpoint Dewpoint Depression Visibility Wind Speed Wind Dir Waves Ship Positions

Marchicora

Last reported at 2016-Jun-27 08:21 UTC. Time now 2016-Jun-29 03:56 UTC.
Position N 40°21' W 009°51'.

Length 153 m; draft 10 m.

Type: Cargo ship. MMSI: 304653000.

Date/timePositionNaut miles runAvg speedWind from/ knotsBaromVisibWave heightAir tempDewpointWater temp
2016-Jun-27 08:21N 40°21' W 009°51'810.7
2016-Jun-27 07:33N 40°12' W 009°51'1110.8
2016-Jun-27 06:33N 40°02' W 009°50'1110.8
2016-Jun-27 05:33N 39°51' W 009°50'1010.4
2016-Jun-27 04:33N 39°40' W 009°51'3110.2
2016-Jun-27 01:28N 39°09' W 009°51'910.2
2016-Jun-27 00:34N 38°60' W 009°52'1010.4
2016-Jun-26 23:34N 38°49' W 009°52'1010.2
2016-Jun-26 22:33N 38°39' W 009°51'1010.2
2016-Jun-26 21:33N 38°29' W 009°48'10 9.9
2016-Jun-26 20:33N 38°19' W 009°45'10 9.8
2016-Jun-26 19:33N 38°10' W 009°42'1010.0
2016-Jun-26 18:33N 38°00' W 009°39'1110.6
2016-Jun-26 17:33N 37°50' W 009°36'1110.6
2016-Jun-26 16:33N 37°39' W 009°34'1111.0
2016-Jun-26 15:33N 37°29' W 009°30'1110.6
2016-Jun-26 14:29N 37°18' W 009°27'1010.7
2016-Jun-26 13:33N 37°08' W 009°24'30 9.7
2016-Jun-26 10:29N 36°43' W 009°04'1010.7
2016-Jun-26 09:34N 36°40' W 008°52'1111.0
2016-Jun-26 08:33N 36°37' W 008°39'2311.7
2016-Jun-26 06:33N 36°29' W 008°11'1212.0
2016-Jun-26 05:33N 36°25' W 007°57'12111.0
2016-Jun-25 18:34N 35°59' W 005°31'8 8.1
2016-Jun-25 17:34N 36°06' W 005°25'0 0.4
2016-Jun-25 16:32N 36°06' W 005°25'0 0.1
2016-Jun-25 15:26N 36°06' W 005°25'0 0.0
2016-Jun-25 14:32N 36°06' W 005°25'0 0.1
2016-Jun-25 13:32N 36°06' W 005°25'2 2.2
2016-Jun-25 12:34N 36°05' W 005°23'6 5.8
2016-Jun-25 11:34N 36°03' W 005°16'0 0.2
2016-Jun-25 10:33N 36°03' W 005°16'0 0.4
2016-Jun-25 09:33N 36°04' W 005°16'0 0.3
2016-Jun-25 08:33N 36°04' W 005°16'1 0.5
2016-Jun-25 07:34N 36°04' W 005°16'0 0.1
2016-Jun-25 06:33N 36°04' W 005°16'1 0.6
2016-Jun-25 05:33N 36°04' W 005°17'1 0.8
2016-Jun-25 04:33N 36°03' W 005°16'4 3.8
2016-Jun-25 03:34N 36°03' W 005°11'15817.6
2016-Jun-24 18:33N 36°29' W 001°57'2 2.2
2016-Jun-24 17:31N 36°29' W 001°55'5 2.6
2016-Jun-24 15:25N 36°28' W 002°01'1212.3
2016-Jun-24 14:25N 36°30' W 001°46'5 4.1
2016-Jun-24 13:09N 36°31' W 001°40'712.5
2016-Jun-24 12:33N 36°33' W 001°31'1211.8
2016-Jun-24 11:30N 36°35' W 001°16'1111.3
2016-Jun-24 10:33N 36°37' W 001°03'1211.4
2016-Jun-24 09:31N 36°40' W 000°48'1111.9
2016-Jun-24 08:34N 36°42' W 000°34'1212.2
2016-Jun-24 07:33N 36°44' W 000°19'3812.8
2016-Jun-24 04:33N 36°52' E 000°28'1313.4
2016-Jun-24 03:33N 36°55' E 000°44'1313.2
2016-Jun-24 02:33N 36°57' E 001°00'1312.9
2016-Jun-24 01:33N 36°60' E 001°16'1312.6
2016-Jun-24 00:33N 37°02' E 001°32'1212.4
2016-Jun-23 23:33N 37°05' E 001°47'1212.4
2016-Jun-23 22:33N 37°07' E 002°02'1312.7
2016-Jun-23 21:33N 37°10' E 002°18'1312.5
2016-Jun-23 20:33N 37°12' E 002°33'1211.8
2016-Jun-23 19:33N 37°15' E 002°47'1111.2
2016-Jun-23 18:33N 37°17' E 003°01'1111.3
2016-Jun-23 17:33N 37°19' E 003°15'1211.6
2016-Jun-23 16:33N 37°21' E 003°30'1212.3
2016-Jun-23 15:33N 37°24' E 003°45'1212.2
2016-Jun-23 14:33N 37°26' E 003°60'1212.3
2016-Jun-23 13:33N 37°29' E 004°15'1312.6
2016-Jun-23 12:32N 37°31' E 004°31'1312.9
2016-Jun-23 11:33N 37°32' E 004°47'1313.2
2016-Jun-23 10:34N 37°34' E 005°03'1413.4
2016-Jun-23 09:33N 37°36' E 005°20'3112.9
2016-Jun-23 07:11N 37°40' E 005°59'2012.3
2016-Jun-23 05:33N 37°42' E 006°24'8912.4
2016-Jun-22 22:24N 37°54' E 008°15'1111.9
2016-Jun-22 21:27N 37°56' E 008°29'6112.2
2016-Jun-22 16:26N 38°03' E 009°46'18011.8
2016-Jun-22 01:16N 37°01' E 013°19'912.7
2016-Jun-22 00:33N 36°57' E 013°28'1312.7
2016-Jun-21 23:33N 36°51' E 013°42'1212.0
2016-Jun-21 22:34N 36°45' E 013°55'1212.2
2016-Jun-21 21:34N 36°38' E 014°08'1212.4
2016-Jun-21 20:33N 36°32' E 014°22'1212.3
2016-Jun-21 19:33N 36°29' E 014°36'1313.0
2016-Jun-21 18:33N 36°28' E 014°53'39912.4
2016-Jun-20 10:22N 36°02' E 023°07'1012.6
2016-Jun-20 09:33N 36°07' E 023°18'4112.7
2016-Jun-20 06:18N 36°32' E 023°59'912.6
2016-Jun-20 05:33N 36°38' E 024°08'1312.5
2016-Jun-20 04:32N 36°46' E 024°20'  
Track history (hours):
 
Tides and Currents Weather Stations Pressure Air Temp Water Temp Dewpoint Dewpoint Depression Visibility Wind Speed Wind Dir Waves Ship Positions

Marchicora

Last reported at 2016-Jun-27 08:21 UTC. Time now 2016-Jun-29 03:56 UTC.
Position N 40°21' W 009°51'.

Length 153 m; draft 10 m.

Type: Cargo ship. MMSI: 304653000.

Date/timePositionNaut miles runAvg speedWind from/ knotsBaromVisibWave heightAir tempDewpointWater temp
2016-Jun-27 08:21N 40°21' W 009°51'810.7
2016-Jun-27 07:33N 40°12' W 009°51'1110.8
2016-Jun-27 06:33N 40°02' W 009°50'1110.8
2016-Jun-27 05:33N 39°51' W 009°50'1010.4
2016-Jun-27 04:33N 39°40' W 009°51'3110.2
2016-Jun-27 01:28N 39°09' W 009°51'910.2
2016-Jun-27 00:34N 38°60' W 009°52'1010.4
2016-Jun-26 23:34N 38°49' W 009°52'1010.2
2016-Jun-26 22:33N 38°39' W 009°51'1010.2
2016-Jun-26 21:33N 38°29' W 009°48'10 9.9
2016-Jun-26 20:33N 38°19' W 009°45'10 9.8
2016-Jun-26 19:33N 38°10' W 009°42'1010.0
2016-Jun-26 18:33N 38°00' W 009°39'1110.6
2016-Jun-26 17:33N 37°50' W 009°36'1110.6
2016-Jun-26 16:33N 37°39' W 009°34'1111.0
2016-Jun-26 15:33N 37°29' W 009°30'1110.6
2016-Jun-26 14:29N 37°18' W 009°27'1010.7
2016-Jun-26 13:33N 37°08' W 009°24'30 9.7
2016-Jun-26 10:29N 36°43' W 009°04'1010.7
2016-Jun-26 09:34N 36°40' W 008°52'1111.0
2016-Jun-26 08:33N 36°37' W 008°39'2311.7
2016-Jun-26 06:33N 36°29' W 008°11'1212.0
2016-Jun-26 05:33N 36°25' W 007°57'12111.0
2016-Jun-25 18:34N 35°59' W 005°31'8 8.1
2016-Jun-25 17:34N 36°06' W 005°25'0 0.4
2016-Jun-25 16:32N 36°06' W 005°25'0 0.1
2016-Jun-25 15:26N 36°06' W 005°25'0 0.0
2016-Jun-25 14:32N 36°06' W 005°25'0 0.1
2016-Jun-25 13:32N 36°06' W 005°25'2 2.2
2016-Jun-25 12:34N 36°05' W 005°23'6 5.8
2016-Jun-25 11:34N 36°03' W 005°16'0 0.2
2016-Jun-25 10:33N 36°03' W 005°16'0 0.4
2016-Jun-25 09:33N 36°04' W 005°16'0 0.3
2016-Jun-25 08:33N 36°04' W 005°16'1 0.5
2016-Jun-25 07:34N 36°04' W 005°16'0 0.1
2016-Jun-25 06:33N 36°04' W 005°16'1 0.6
2016-Jun-25 05:33N 36°04' W 005°17'1 0.8
2016-Jun-25 04:33N 36°03' W 005°16'4 3.8
2016-Jun-25 03:34N 36°03' W 005°11'15817.6
2016-Jun-24 18:33N 36°29' W 001°57'2 2.2
2016-Jun-24 17:31N 36°29' W 001°55'5 2.6
2016-Jun-24 15:25N 36°28' W 002°01'1212.3
2016-Jun-24 14:25N 36°30' W 001°46'5 4.1
2016-Jun-24 13:09N 36°31' W 001°40'712.5
2016-Jun-24 12:33N 36°33' W 001°31'1211.8
2016-Jun-24 11:30N 36°35' W 001°16'1111.3
2016-Jun-24 10:33N 36°37' W 001°03'1211.4
2016-Jun-24 09:31N 36°40' W 000°48'1111.9
2016-Jun-24 08:34N 36°42' W 000°34'1212.2
2016-Jun-24 07:33N 36°44' W 000°19'3812.8
2016-Jun-24 04:33N 36°52' E 000°28'1313.4
2016-Jun-24 03:33N 36°55' E 000°44'1313.2
2016-Jun-24 02:33N 36°57' E 001°00'1312.9
2016-Jun-24 01:33N 36°60' E 001°16'1312.6
2016-Jun-24 00:33N 37°02' E 001°32'1212.4
2016-Jun-23 23:33N 37°05' E 001°47'1212.4
2016-Jun-23 22:33N 37°07' E 002°02'1312.7
2016-Jun-23 21:33N 37°10' E 002°18'1312.5
2016-Jun-23 20:33N 37°12' E 002°33'1211.8
2016-Jun-23 19:33N 37°15' E 002°47'1111.2
2016-Jun-23 18:33N 37°17' E 003°01'1111.3
2016-Jun-23 17:33N 37°19' E 003°15'1211.6
2016-Jun-23 16:33N 37°21' E 003°30'1212.3
2016-Jun-23 15:33N 37°24' E 003°45'1212.2
2016-Jun-23 14:33N 37°26' E 003°60'1212.3
2016-Jun-23 13:33N 37°29' E 004°15'1312.6
2016-Jun-23 12:32N 37°31' E 004°31'1312.9
2016-Jun-23 11:33N 37°32' E 004°47'1313.2
2016-Jun-23 10:34N 37°34' E 005°03'1413.4
2016-Jun-23 09:33N 37°36' E 005°20'3112.9
2016-Jun-23 07:11N 37°40' E 005°59'2012.3
2016-Jun-23 05:33N 37°42' E 006°24'8912.4
2016-Jun-22 22:24N 37°54' E 008°15'1111.9
2016-Jun-22 21:27N 37°56' E 008°29'6112.2
2016-Jun-22 16:26N 38°03' E 009°46'18011.8
2016-Jun-22 01:16N 37°01' E 013°19'912.7
2016-Jun-22 00:33N 36°57' E 013°28'1312.7
2016-Jun-21 23:33N 36°51' E 013°42'1212.0
2016-Jun-21 22:34N 36°45' E 013°55'1212.2
2016-Jun-21 21:34N 36°38' E 014°08'1212.4
2016-Jun-21 20:33N 36°32' E 014°22'1212.3
2016-Jun-21 19:33N 36°29' E 014°36'1313.0
2016-Jun-21 18:33N 36°28' E 014°53'39912.4
2016-Jun-20 10:22N 36°02' E 023°07'1012.6
2016-Jun-20 09:33N 36°07' E 023°18'4112.7
2016-Jun-20 06:18N 36°32' E 023°59'912.6
2016-Jun-20 05:33N 36°38' E 024°08'1312.5
2016-Jun-20 04:32N 36°46' E 024°20'  

Dump ship's entire track history